Prosser, Washington
Current Conditions -  °F | °C
As of 5:53 PM on Wednesday 22 Oct 2014 (Local Time) from KPSC Reporting Station
Light Rain Light Rain  
Wind Chill: 62°   Ceiling: 9000
Heat Index: 62°   Visibility: 10mi
Dew Point: 56°   Wind: 9mph
Humidity: 80%   Direction: 120°ESE
Pressure: 29.71"   Gusts: NA
Location:  46.21°N, 119.77°W
Report Text: KPSC 230053Z 12008KT 10SM -RA BKN090 OVC110 17/13 A2971 RMK AO2 SLP059 P0001 T01670133
Loading
Personal Weather Stations






























Interactive Weather Map
Tropical Storm Tracking
New forecast layout! Learn more

10-Day Weather Forecast

Advertisements
Track Severe Weather on mobile